sensor_id;sensor_type;location;lat;lon;timestamp;temperature;humidity
47382;DHT22;33128;51.580;5.170;2023-05-10T00:01:31;14.80;99.90
47382;DHT22;33128;51.580;5.170;2023-05-10T00:03:57;14.70;99.90
47382;DHT22;33128;51.580;5.170;2023-05-10T00:06:22;14.70;99.90
47382;DHT22;33128;51.580;5.170;2023-05-10T00:08:48;14.70;99.90
47382;DHT22;33128;51.580;5.170;2023-05-10T00:11:13;14.60;99.90
47382;DHT22;33128;51.580;5.170;2023-05-10T00:13:38;14.50;99.90
47382;DHT22;33128;51.580;5.170;2023-05-10T00:16:04;14.40;99.90
47382;DHT22;33128;51.580;5.170;2023-05-10T00:18:30;14.30;99.90
47382;DHT22;33128;51.580;5.170;2023-05-10T00:20:55;14.30;99.90
47382;DHT22;33128;51.580;5.170;2023-05-10T00:23:21;14.30;99.90
47382;DHT22;33128;51.580;5.170;2023-05-10T00:25:46;14.30;99.90
47382;DHT22;33128;51.580;5.170;2023-05-10T00:28:12;14.30;99.90
47382;DHT22;33128;51.580;5.170;2023-05-10T00:30:37;14.20;99.90
47382;DHT22;33128;51.580;5.170;2023-05-10T00:33:03;14.30;99.90
47382;DHT22;33128;51.580;5.170;2023-05-10T00:35:28;14.30;99.90
47382;DHT22;33128;51.580;5.170;2023-05-10T00:37:54;14.20;99.90
47382;DHT22;33128;51.580;5.170;2023-05-10T00:40:19;14.20;99.90
47382;DHT22;33128;51.580;5.170;2023-05-10T00:42:45;14.20;99.90
47382;DHT22;33128;51.580;5.170;2023-05-10T00:45:11;14.20;99.90
47382;DHT22;33128;51.580;5.170;2023-05-10T00:47:37;14.20;99.90
47382;DHT22;33128;51.580;5.170;2023-05-10T00:50:02;14.30;99.90
47382;DHT22;33128;51.580;5.170;2023-05-10T00:52:28;14.30;99.90
47382;DHT22;33128;51.580;5.170;2023-05-10T00:54:54;14.30;99.90
47382;DHT22;33128;51.580;5.170;2023-05-10T00:57:23;14.30;99.90
47382;DHT22;33128;51.580;5.170;2023-05-10T00:59:49;14.30;99.90
47382;DHT22;33128;51.580;5.170;2023-05-10T01:02:15;14.30;99.90
47382;DHT22;33128;51.580;5.170;2023-05-10T01:04:40;14.20;99.90
47382;DHT22;33128;51.580;5.170;2023-05-10T01:07:06;14.20;99.90
47382;DHT22;33128;51.580;5.170;2023-05-10T01:09:31;14.20;99.90
47382;DHT22;33128;51.580;5.170;2023-05-10T01:11:57;14.30;99.90
47382;DHT22;33128;51.580;5.170;2023-05-10T01:14:23;14.40;99.90
47382;DHT22;33128;51.580;5.170;2023-05-10T01:16:50;14.30;99.90
47382;DHT22;33128;51.580;5.170;2023-05-10T01:19:19;14.30;99.90
47382;DHT22;33128;51.580;5.170;2023-05-10T01:27:17;14.20;99.90
47382;DHT22;33128;51.580;5.170;2023-05-10T01:32:21;14.20;99.90
47382;DHT22;33128;51.580;5.170;2023-05-10T01:37:21;14.30;99.90
47382;DHT22;33128;51.580;5.170;2023-05-10T01:40:00;14.30;99.90
47382;DHT22;33128;51.580;5.170;2023-05-10T01:42:26;14.30;99.90
47382;DHT22;33128;51.580;5.170;2023-05-10T01:44:56;14.30;99.90
47382;DHT22;33128;51.580;5.170;2023-05-10T01:49:53;14.30;99.90
47382;DHT22;33128;51.580;5.170;2023-05-10T01:52:19;14.30;99.90
47382;DHT22;33128;51.580;5.170;2023-05-10T01:54:59;14.30;99.90
47382;DHT22;33128;51.580;5.170;2023-05-10T01:57:26;14.30;99.90
47382;DHT22;33128;51.580;5.170;2023-05-10T01:59:52;14.40;99.90
47382;DHT22;33128;51.580;5.170;2023-05-10T02:02:18;14.40;99.90
47382;DHT22;33128;51.580;5.170;2023-05-10T02:04:45;14.30;99.90
47382;DHT22;33128;51.580;5.170;2023-05-10T02:07:11;14.30;99.90
47382;DHT22;33128;51.580;5.170;2023-05-10T02:09:37;14.30;99.90
47382;DHT22;33128;51.580;5.170;2023-05-10T02:12:03;14.30;99.90
47382;DHT22;33128;51.580;5.170;2023-05-10T02:14:34;14.30;99.90
47382;DHT22;33128;51.580;5.170;2023-05-10T02:17:02;14.30;99.90
47382;DHT22;33128;51.580;5.170;2023-05-10T02:19:28;14.40;99.90
47382;DHT22;33128;51.580;5.170;2023-05-10T02:21:55;14.40;99.90
47382;DHT22;33128;51.580;5.170;2023-05-10T02:24:21;14.40;99.90
47382;DHT22;33128;51.580;5.170;2023-05-10T02:26:47;14.30;99.90
47382;DHT22;33128;51.580;5.170;2023-05-10T02:29:14;14.30;99.90
47382;DHT22;33128;51.580;5.170;2023-05-10T02:31:40;14.40;99.90
47382;DHT22;33128;51.580;5.170;2023-05-10T02:34:08;14.40;99.90
47382;DHT22;33128;51.580;5.170;2023-05-10T02:36:36;14.40;99.90
47382;DHT22;33128;51.580;5.170;2023-05-10T02:39:02;14.40;99.90
47382;DHT22;33128;51.580;5.170;2023-05-10T02:41:27;14.40;99.90
47382;DHT22;33128;51.580;5.170;2023-05-10T02:43:55;14.40;99.90
47382;DHT22;33128;51.580;5.170;2023-05-10T02:46:21;14.40;99.90
47382;DHT22;33128;51.580;5.170;2023-05-10T02:48:46;14.40;99.90
47382;DHT22;33128;51.580;5.170;2023-05-10T02:51:12;14.40;99.90
47382;DHT22;33128;51.580;5.170;2023-05-10T02:53:43;14.40;99.90
47382;DHT22;33128;51.580;5.170;2023-05-10T02:56:12;14.40;99.90
47382;DHT22;33128;51.580;5.170;2023-05-10T02:58:38;14.50;99.90
47382;DHT22;33128;51.580;5.170;2023-05-10T03:01:04;14.50;99.90
47382;DHT22;33128;51.580;5.170;2023-05-10T03:03:29;14.50;99.90
47382;DHT22;33128;51.580;5.170;2023-05-10T03:05:55;14.50;99.90
47382;DHT22;33128;51.580;5.170;2023-05-10T03:08:21;14.50;99.90
47382;DHT22;33128;51.580;5.170;2023-05-10T03:10:54;14.50;99.90
47382;DHT22;33128;51.580;5.170;2023-05-10T03:13:29;14.50;99.90
47382;DHT22;33128;51.580;5.170;2023-05-10T03:15:59;14.40;99.90
47382;DHT22;33128;51.580;5.170;2023-05-10T03:18:37;14.40;99.90
47382;DHT22;33128;51.580;5.170;2023-05-10T03:21:07;14.40;99.90
47382;DHT22;33128;51.580;5.170;2023-05-10T03:25:59;14.40;99.90
47382;DHT22;33128;51.580;5.170;2023-05-10T03:28:25;14.40;99.90
47382;DHT22;33128;51.580;5.170;2023-05-10T03:30:52;14.30;99.90
47382;DHT22;33128;51.580;5.170;2023-05-10T03:33:18;14.40;99.90
47382;DHT22;33128;51.580;5.170;2023-05-10T03:35:43;14.40;99.90
47382;DHT22;33128;51.580;5.170;2023-05-10T03:38:11;14.40;99.90
47382;DHT22;33128;51.580;5.170;2023-05-10T03:40:36;14.40;99.90
47382;DHT22;33128;51.580;5.170;2023-05-10T03:43:02;14.40;99.90
47382;DHT22;33128;51.580;5.170;2023-05-10T03:45:27;14.40;99.90
47382;DHT22;33128;51.580;5.170;2023-05-10T03:47:53;14.40;99.90
47382;DHT22;33128;51.580;5.170;2023-05-10T03:50:19;14.30;99.90
47382;DHT22;33128;51.580;5.170;2023-05-10T03:52:44;14.30;99.90
47382;DHT22;33128;51.580;5.170;2023-05-10T03:55:10;14.20;99.90
47382;DHT22;33128;51.580;5.170;2023-05-10T03:57:36;14.30;99.90
47382;DHT22;33128;51.580;5.170;2023-05-10T04:00:02;14.30;99.90
47382;DHT22;33128;51.580;5.170;2023-05-10T04:02:27;14.30;99.90
47382;DHT22;33128;51.580;5.170;2023-05-10T04:04:54;14.30;99.90
47382;DHT22;33128;51.580;5.170;2023-05-10T04:07:20;14.30;99.90
47382;DHT22;33128;51.580;5.170;2023-05-10T04:09:45;14.30;99.90
47382;DHT22;33128;51.580;5.170;2023-05-10T04:12:10;14.20;99.90
47382;DHT22;33128;51.580;5.170;2023-05-10T04:14:36;14.40;99.90
47382;DHT22;33128;51.580;5.170;2023-05-10T04:17:02;14.40;99.90
47382;DHT22;33128;51.580;5.170;2023-05-10T04:19:31;14.30;99.90
47382;DHT22;33128;51.580;5.170;2023-05-10T04:21:57;14.40;99.90
47382;DHT22;33128;51.580;5.170;2023-05-10T04:24:23;15.10;99.90
47382;DHT22;33128;51.580;5.170;2023-05-10T04:26:49;16.20;99.90
47382;DHT22;33128;51.580;5.170;2023-05-10T04:29:14;16.80;99.90
47382;DHT22;33128;51.580;5.170;2023-05-10T04:31:40;16.40;99.90
47382;DHT22;33128;51.580;5.170;2023-05-10T04:34:05;15.60;99.90
47382;DHT22;33128;51.580;5.170;2023-05-10T04:36:31;15.20;99.90
47382;DHT22;33128;51.580;5.170;2023-05-10T04:38:59;15.00;99.90
47382;DHT22;33128;51.580;5.170;2023-05-10T04:41:24;14.80;99.90
47382;DHT22;33128;51.580;5.170;2023-05-10T04:43:50;14.80;99.90
47382;DHT22;33128;51.580;5.170;2023-05-10T04:46:16;14.70;99.90
47382;DHT22;33128;51.580;5.170;2023-05-10T04:48:41;14.50;99.90
47382;DHT22;33128;51.580;5.170;2023-05-10T04:51:07;14.50;99.90
47382;DHT22;33128;51.580;5.170;2023-05-10T04:53:32;14.40;99.90
47382;DHT22;33128;51.580;5.170;2023-05-10T04:55:58;14.40;99.90
47382;DHT22;33128;51.580;5.170;2023-05-10T04:58:26;14.50;99.90
47382;DHT22;33128;51.580;5.170;2023-05-10T05:00:52;15.50;99.90
47382;DHT22;33128;51.580;5.170;2023-05-10T05:03:17;16.30;99.90
47382;DHT22;33128;51.580;5.170;2023-05-10T05:05:43;16.40;99.90
47382;DHT22;33128;51.580;5.170;2023-05-10T05:08:09;15.60;99.90
47382;DHT22;33128;51.580;5.170;2023-05-10T05:10:35;15.10;99.90
47382;DHT22;33128;51.580;5.170;2023-05-10T05:13:00;14.80;99.90
47382;DHT22;33128;51.580;5.170;2023-05-10T05:15:29;14.70;99.90
47382;DHT22;33128;51.580;5.170;2023-05-10T05:17:57;14.80;99.90
47382;DHT22;33128;51.580;5.170;2023-05-10T05:20:23;14.70;99.90
47382;DHT22;33128;51.580;5.170;2023-05-10T05:22:48;14.60;99.90
47382;DHT22;33128;51.580;5.170;2023-05-10T05:25:14;14.60;99.90
47382;DHT22;33128;51.580;5.170;2023-05-10T05:27:40;14.40;99.90
47382;DHT22;33128;51.580;5.170;2023-05-10T05:30:06;14.50;99.90
47382;DHT22;33128;51.580;5.170;2023-05-10T05:32:31;14.50;99.90
47382;DHT22;33128;51.580;5.170;2023-05-10T05:34:57;14.50;99.90
47382;DHT22;33128;51.580;5.170;2023-05-10T05:37:22;14.40;99.90
47382;DHT22;33128;51.580;5.170;2023-05-10T05:39:49;14.40;99.90
47382;DHT22;33128;51.580;5.170;2023-05-10T05:42:15;14.50;99.90
47382;DHT22;33128;51.580;5.170;2023-05-10T05:44:42;14.50;99.90
47382;DHT22;33128;51.580;5.170;2023-05-10T05:47:08;14.40;99.90
47382;DHT22;33128;51.580;5.170;2023-05-10T05:49:34;14.40;99.90
47382;DHT22;33128;51.580;5.170;2023-05-10T05:52:03;14.40;99.90
47382;DHT22;33128;51.580;5.170;2023-05-10T05:54:29;14.50;99.90
47382;DHT22;33128;51.580;5.170;2023-05-10T05:56:55;14.50;99.90
47382;DHT22;33128;51.580;5.170;2023-05-10T05:59:21;14.50;99.90
47382;DHT22;33128;51.580;5.170;2023-05-10T06:01:46;14.50;99.90
47382;DHT22;33128;51.580;5.170;2023-05-10T06:04:12;14.50;99.90
47382;DHT22;33128;51.580;5.170;2023-05-10T06:06:38;14.50;99.90
47382;DHT22;33128;51.580;5.170;2023-05-10T06:09:03;14.60;99.90
47382;DHT22;33128;51.580;5.170;2023-05-10T06:11:29;14.50;99.90
47382;DHT22;33128;51.580;5.170;2023-05-10T06:13:55;14.50;99.90
47382;DHT22;33128;51.580;5.170;2023-05-10T06:16:21;14.50;99.90
47382;DHT22;33128;51.580;5.170;2023-05-10T06:18:46;14.50;99.90
47382;DHT22;33128;51.580;5.170;2023-05-10T06:21:12;14.50;99.90
47382;DHT22;33128;51.580;5.170;2023-05-10T06:23:37;14.50;99.90
47382;DHT22;33128;51.580;5.170;2023-05-10T06:26:03;14.50;99.90
47382;DHT22;33128;51.580;5.170;2023-05-10T06:28:29;14.60;99.90
47382;DHT22;33128;51.580;5.170;2023-05-10T06:30:56;14.50;99.90
47382;DHT22;33128;51.580;5.170;2023-05-10T06:33:21;14.50;99.90
47382;DHT22;33128;51.580;5.170;2023-05-10T06:35:47;14.50;99.90
47382;DHT22;33128;51.580;5.170;2023-05-10T06:38:13;14.50;99.90
47382;DHT22;33128;51.580;5.170;2023-05-10T06:40:41;14.50;99.90
47382;DHT22;33128;51.580;5.170;2023-05-10T06:43:06;14.40;99.90
47382;DHT22;33128;51.580;5.170;2023-05-10T06:45:32;14.50;99.90
47382;DHT22;33128;51.580;5.170;2023-05-10T06:47:57;14.50;99.90
47382;DHT22;33128;51.580;5.170;2023-05-10T06:50:23;14.50;99.90
47382;DHT22;33128;51.580;5.170;2023-05-10T06:52:48;14.50;99.90
47382;DHT22;33128;51.580;5.170;2023-05-10T06:55:13;14.40;99.90
47382;DHT22;33128;51.580;5.170;2023-05-10T06:57:39;14.40;99.90
47382;DHT22;33128;51.580;5.170;2023-05-10T07:00:05;14.50;99.90
47382;DHT22;33128;51.580;5.170;2023-05-10T07:02:30;14.60;99.90
47382;DHT22;33128;51.580;5.170;2023-05-10T07:04:56;14.60;99.90
47382;DHT22;33128;51.580;5.170;2023-05-10T07:07:21;14.50;99.90
47382;DHT22;33128;51.580;5.170;2023-05-10T07:09:47;14.70;99.90
47382;DHT22;33128;51.580;5.170;2023-05-10T07:12:12;14.60;99.90
47382;DHT22;33128;51.580;5.170;2023-05-10T07:14:38;14.60;99.90
47382;DHT22;33128;51.580;5.170;2023-05-10T07:17:03;14.50;99.90
47382;DHT22;33128;51.580;5.170;2023-05-10T07:19:29;14.40;99.90
47382;DHT22;33128;51.580;5.170;2023-05-10T07:21:55;14.40;99.90
47382;DHT22;33128;51.580;5.170;2023-05-10T07:24:20;14.50;99.90
47382;DHT22;33128;51.580;5.170;2023-05-10T07:26:45;14.40;99.90
47382;DHT22;33128;51.580;5.170;2023-05-10T07:29:11;14.70;99.90
47382;DHT22;33128;51.580;5.170;2023-05-10T07:31:37;14.60;99.90
47382;DHT22;33128;51.580;5.170;2023-05-10T07:34:02;14.70;99.90
47382;DHT22;33128;51.580;5.170;2023-05-10T07:36:28;14.70;99.90
47382;DHT22;33128;51.580;5.170;2023-05-10T07:38:54;14.70;99.90
47382;DHT22;33128;51.580;5.170;2023-05-10T07:41:19;14.70;99.90
47382;DHT22;33128;51.580;5.170;2023-05-10T07:43:46;14.70;99.90
47382;DHT22;33128;51.580;5.170;2023-05-10T07:46:11;14.70;99.90
47382;DHT22;33128;51.580;5.170;2023-05-10T07:48:37;14.90;99.90
47382;DHT22;33128;51.580;5.170;2023-05-10T07:51:02;14.90;99.90
47382;DHT22;33128;51.580;5.170;2023-05-10T07:53:28;15.00;99.90
47382;DHT22;33128;51.580;5.170;2023-05-10T07:55:54;15.00;99.90
47382;DHT22;33128;51.580;5.170;2023-05-10T07:58:22;15.00;99.90
47382;DHT22;33128;51.580;5.170;2023-05-10T08:00:47;15.10;99.90
47382;DHT22;33128;51.580;5.170;2023-05-10T08:03:14;15.00;99.90
47382;DHT22;33128;51.580;5.170;2023-05-10T08:05:40;15.20;99.90
47382;DHT22;33128;51.580;5.170;2023-05-10T08:08:05;15.10;99.90
47382;DHT22;33128;51.580;5.170;2023-05-10T08:10:31;15.20;99.90
47382;DHT22;33128;51.580;5.170;2023-05-10T08:12:56;15.20;99.90
47382;DHT22;33128;51.580;5.170;2023-05-10T08:15:23;15.30;99.90
47382;DHT22;33128;51.580;5.170;2023-05-10T08:17:50;15.30;99.90
47382;DHT22;33128;51.580;5.170;2023-05-10T08:20:15;15.40;99.90
47382;DHT22;33128;51.580;5.170;2023-05-10T08:22:46;15.50;99.90
47382;DHT22;33128;51.580;5.170;2023-05-10T08:25:12;15.50;99.90
47382;DHT22;33128;51.580;5.170;2023-05-10T08:27:37;15.60;99.90
47382;DHT22;33128;51.580;5.170;2023-05-10T08:30:03;15.50;99.90
47382;DHT22;33128;51.580;5.170;2023-05-10T08:32:28;15.50;99.90
47382;DHT22;33128;51.580;5.170;2023-05-10T08:34:54;15.60;99.90
47382;DHT22;33128;51.580;5.170;2023-05-10T08:37:20;15.70;99.90
47382;DHT22;33128;51.580;5.170;2023-05-10T08:39:45;15.80;99.90
47382;DHT22;33128;51.580;5.170;2023-05-10T08:42:13;15.70;99.90
47382;DHT22;33128;51.580;5.170;2023-05-10T08:44:41;15.70;99.90
47382;DHT22;33128;51.580;5.170;2023-05-10T08:47:07;15.60;99.90
47382;DHT22;33128;51.580;5.170;2023-05-10T08:49:34;15.60;99.90
47382;DHT22;33128;51.580;5.170;2023-05-10T08:52:01;15.70;99.90
47382;DHT22;33128;51.580;5.170;2023-05-10T08:54:28;15.80;99.90
47382;DHT22;33128;51.580;5.170;2023-05-10T08:56:55;15.70;99.90
47382;DHT22;33128;51.580;5.170;2023-05-10T08:59:21;15.80;99.90
47382;DHT22;33128;51.580;5.170;2023-05-10T09:01:47;15.90;99.90
47382;DHT22;33128;51.580;5.170;2023-05-10T09:04:14;16.00;99.90
47382;DHT22;33128;51.580;5.170;2023-05-10T09:06:40;16.00;99.90
47382;DHT22;33128;51.580;5.170;2023-05-10T09:09:06;16.20;99.90
47382;DHT22;33128;51.580;5.170;2023-05-10T09:11:31;16.10;99.90
47382;DHT22;33128;51.580;5.170;2023-05-10T09:13:57;16.10;99.90
47382;DHT22;33128;51.580;5.170;2023-05-10T09:16:23;16.00;99.90
47382;DHT22;33128;51.580;5.170;2023-05-10T09:18:48;16.00;99.90
47382;DHT22;33128;51.580;5.170;2023-05-10T09:21:14;15.90;99.90
47382;DHT22;33128;51.580;5.170;2023-05-10T09:23:44;15.90;99.90
47382;DHT22;33128;51.580;5.170;2023-05-10T09:26:09;16.00;99.90
47382;DHT22;33128;51.580;5.170;2023-05-10T09:28:58;16.10;99.90
47382;DHT22;33128;51.580;5.170;2023-05-10T09:31:22;16.10;99.90
47382;DHT22;33128;51.580;5.170;2023-05-10T09:33:48;16.10;99.90
47382;DHT22;33128;51.580;5.170;2023-05-10T09:36:14;16.20;99.90
47382;DHT22;33128;51.580;5.170;2023-05-10T09:38:50;16.20;99.90
47382;DHT22;33128;51.580;5.170;2023-05-10T09:41:17;16.30;99.90
47382;DHT22;33128;51.580;5.170;2023-05-10T09:43:43;16.30;99.90
47382;DHT22;33128;51.580;5.170;2023-05-10T09:46:09;16.30;99.90
47382;DHT22;33128;51.580;5.170;2023-05-10T09:48:39;16.30;99.90
47382;DHT22;33128;51.580;5.170;2023-05-10T09:51:06;16.30;99.90
47382;DHT22;33128;51.580;5.170;2023-05-10T09:53:32;16.30;99.90
47382;DHT22;33128;51.580;5.170;2023-05-10T09:55:57;16.40;99.90
47382;DHT22;33128;51.580;5.170;2023-05-10T09:58:22;16.40;99.90
47382;DHT22;33128;51.580;5.170;2023-05-10T10:00:48;16.40;99.90
47382;DHT22;33128;51.580;5.170;2023-05-10T10:03:17;16.50;99.90
47382;DHT22;33128;51.580;5.170;2023-05-10T10:05:43;16.60;99.90
47382;DHT22;33128;51.580;5.170;2023-05-10T10:08:09;16.60;99.90
47382;DHT22;33128;51.580;5.170;2023-05-10T10:10:34;16.70;99.90
47382;DHT22;33128;51.580;5.170;2023-05-10T10:13:00;16.80;99.90
47382;DHT22;33128;51.580;5.170;2023-05-10T10:15:26;16.70;99.90
47382;DHT22;33128;51.580;5.170;2023-05-10T10:17:52;16.70;99.90
47382;DHT22;33128;51.580;5.170;2023-05-10T10:20:18;16.70;99.90
47382;DHT22;33128;51.580;5.170;2023-05-10T10:22:43;16.70;99.90
47382;DHT22;33128;51.580;5.170;2023-05-10T10:25:13;16.80;99.90
47382;DHT22;33128;51.580;5.170;2023-05-10T10:27:43;16.80;99.90
47382;DHT22;33128;51.580;5.170;2023-05-10T10:32:54;16.90;99.90
47382;DHT22;33128;51.580;5.170;2023-05-10T10:35:25;17.00;99.90
47382;DHT22;33128;51.580;5.170;2023-05-10T10:37:51;17.10;99.90
47382;DHT22;33128;51.580;5.170;2023-05-10T10:40:23;17.20;99.90
47382;DHT22;33128;51.580;5.170;2023-05-10T10:42:49;17.20;99.90
47382;DHT22;33128;51.580;5.170;2023-05-10T10:45:15;17.30;99.90
47382;DHT22;33128;51.580;5.170;2023-05-10T10:47:41;17.40;99.90
47382;DHT22;33128;51.580;5.170;2023-05-10T10:50:08;17.30;99.90
47382;DHT22;33128;51.580;5.170;2023-05-10T10:52:35;17.20;99.90
47382;DHT22;33128;51.580;5.170;2023-05-10T10:55:20;17.00;99.90
47382;DHT22;33128;51.580;5.170;2023-05-10T10:57:53;17.00;99.90
47382;DHT22;33128;51.580;5.170;2023-05-10T11:00:37;17.00;99.90
47382;DHT22;33128;51.580;5.170;2023-05-10T11:03:06;17.10;99.90
47382;DHT22;33128;51.580;5.170;2023-05-10T11:07:58;17.00;99.90
47382;DHT22;33128;51.580;5.170;2023-05-10T11:10:24;17.00;99.90
47382;DHT22;33128;51.580;5.170;2023-05-10T11:12:51;17.00;99.90
47382;DHT22;33128;51.580;5.170;2023-05-10T11:15:16;17.10;99.90
47382;DHT22;33128;51.580;5.170;2023-05-10T11:17:42;17.00;99.90
47382;DHT22;33128;51.580;5.170;2023-05-10T11:20:10;16.90;99.90
47382;DHT22;33128;51.580;5.170;2023-05-10T11:22:49;16.90;99.90
47382;DHT22;33128;51.580;5.170;2023-05-10T11:25:14;16.90;99.90
47382;DHT22;33128;51.580;5.170;2023-05-10T11:27:41;16.90;99.90
47382;DHT22;33128;51.580;5.170;2023-05-10T11:30:06;17.00;99.90
47382;DHT22;33128;51.580;5.170;2023-05-10T11:32:33;17.00;99.90
47382;DHT22;33128;51.580;5.170;2023-05-10T11:34:58;17.10;99.90
47382;DHT22;33128;51.580;5.170;2023-05-10T11:37:24;17.10;99.90
47382;DHT22;33128;51.580;5.170;2023-05-10T11:39:49;17.10;99.90
47382;DHT22;33128;51.580;5.170;2023-05-10T11:42:15;17.00;99.90
47382;DHT22;33128;51.580;5.170;2023-05-10T11:44:40;17.00;99.90
47382;DHT22;33128;51.580;5.170;2023-05-10T11:47:07;17.00;99.90
47382;DHT22;33128;51.580;5.170;2023-05-10T11:49:32;17.00;99.90
47382;DHT22;33128;51.580;5.170;2023-05-10T11:52:04;16.90;99.90
47382;DHT22;33128;51.580;5.170;2023-05-10T11:54:30;16.80;99.90
47382;DHT22;33128;51.580;5.170;2023-05-10T11:56:56;16.90;99.90
47382;DHT22;33128;51.580;5.170;2023-05-10T11:59:24;16.80;99.90
47382;DHT22;33128;51.580;5.170;2023-05-10T12:01:50;16.80;99.90
47382;DHT22;33128;51.580;5.170;2023-05-10T12:04:16;16.80;99.90
47382;DHT22;33128;51.580;5.170;2023-05-10T12:06:41;16.80;99.90
47382;DHT22;33128;51.580;5.170;2023-05-10T12:09:07;16.80;99.90
47382;DHT22;33128;51.580;5.170;2023-05-10T12:11:35;16.80;99.90
47382;DHT22;33128;51.580;5.170;2023-05-10T12:14:03;16.90;99.90
47382;DHT22;33128;51.580;5.170;2023-05-10T12:16:29;16.80;99.90
47382;DHT22;33128;51.580;5.170;2023-05-10T12:18:58;16.80;99.90
47382;DHT22;33128;51.580;5.170;2023-05-10T12:21:25;16.80;99.90
47382;DHT22;33128;51.580;5.170;2023-05-10T12:23:51;16.80;99.90
47382;DHT22;33128;51.580;5.170;2023-05-10T12:26:17;16.80;99.90
47382;DHT22;33128;51.580;5.170;2023-05-10T12:28:43;16.90;99.90
47382;DHT22;33128;51.580;5.170;2023-05-10T12:31:09;16.80;99.90
47382;DHT22;33128;51.580;5.170;2023-05-10T12:33:35;16.90;99.90
47382;DHT22;33128;51.580;5.170;2023-05-10T12:36:01;16.70;99.90
47382;DHT22;33128;51.580;5.170;2023-05-10T12:40:55;16.80;99.90
47382;DHT22;33128;51.580;5.170;2023-05-10T12:43:20;16.80;99.90
47382;DHT22;33128;51.580;5.170;2023-05-10T12:45:46;16.70;99.90
47382;DHT22;33128;51.580;5.170;2023-05-10T12:48:14;16.90;99.90
47382;DHT22;33128;51.580;5.170;2023-05-10T12:50:39;16.80;99.90
47382;DHT22;33128;51.580;5.170;2023-05-10T12:53:05;16.80;99.90
47382;DHT22;33128;51.580;5.170;2023-05-10T12:55:30;16.80;99.90
47382;DHT22;33128;51.580;5.170;2023-05-10T12:57:56;16.80;99.90
47382;DHT22;33128;51.580;5.170;2023-05-10T13:00:21;16.80;99.90
47382;DHT22;33128;51.580;5.170;2023-05-10T13:02:47;16.80;99.90
47382;DHT22;33128;51.580;5.170;2023-05-10T13:05:12;16.80;99.90
47382;DHT22;33128;51.580;5.170;2023-05-10T13:07:38;16.70;99.90
47382;DHT22;33128;51.580;5.170;2023-05-10T13:10:04;16.70;99.90
47382;DHT22;33128;51.580;5.170;2023-05-10T13:12:30;16.70;99.90
47382;DHT22;33128;51.580;5.170;2023-05-10T13:14:56;16.70;99.90
47382;DHT22;33128;51.580;5.170;2023-05-10T13:17:21;16.70;99.90
47382;DHT22;33128;51.580;5.170;2023-05-10T13:19:47;16.60;99.90
47382;DHT22;33128;51.580;5.170;2023-05-10T13:22:12;16.60;99.90
47382;DHT22;33128;51.580;5.170;2023-05-10T13:24:38;16.70;99.90
47382;DHT22;33128;51.580;5.170;2023-05-10T13:27:03;16.70;99.90
47382;DHT22;33128;51.580;5.170;2023-05-10T13:29:29;16.60;99.90
47382;DHT22;33128;51.580;5.170;2023-05-10T13:31:54;16.70;99.90
47382;DHT22;33128;51.580;5.170;2023-05-10T13:34:20;16.70;99.90
47382;DHT22;33128;51.580;5.170;2023-05-10T13:36:46;16.80;99.90
47382;DHT22;33128;51.580;5.170;2023-05-10T13:39:11;17.00;99.90
47382;DHT22;33128;51.580;5.170;2023-05-10T13:41:37;17.10;99.90
47382;DHT22;33128;51.580;5.170;2023-05-10T13:44:03;17.80;99.90
47382;DHT22;33128;51.580;5.170;2023-05-10T13:46:29;18.00;99.90
47382;DHT22;33128;51.580;5.170;2023-05-10T13:48:55;17.90;99.90
47382;DHT22;33128;51.580;5.170;2023-05-10T13:51:20;17.90;99.90
47382;DHT22;33128;51.580;5.170;2023-05-10T13:53:46;17.80;99.90
47382;DHT22;33128;51.580;5.170;2023-05-10T13:56:12;17.70;99.90
47382;DHT22;33128;51.580;5.170;2023-05-10T13:58:41;17.60;99.90
47382;DHT22;33128;51.580;5.170;2023-05-10T14:01:06;17.50;99.90
47382;DHT22;33128;51.580;5.170;2023-05-10T14:03:32;17.40;99.90
47382;DHT22;33128;51.580;5.170;2023-05-10T14:05:57;17.30;99.90
47382;DHT22;33128;51.580;5.170;2023-05-10T14:08:23;17.20;99.90
47382;DHT22;33128;51.580;5.170;2023-05-10T14:10:48;17.10;99.90
47382;DHT22;33128;51.580;5.170;2023-05-10T14:13:15;17.00;99.90
47382;DHT22;33128;51.580;5.170;2023-05-10T14:15:41;16.90;99.90
47382;DHT22;33128;51.580;5.170;2023-05-10T14:18:07;16.80;99.90
47382;DHT22;33128;51.580;5.170;2023-05-10T14:20:32;16.70;99.90
47382;DHT22;33128;51.580;5.170;2023-05-10T14:22:59;16.70;99.90
47382;DHT22;33128;51.580;5.170;2023-05-10T14:25:24;16.70;99.90
47382;DHT22;33128;51.580;5.170;2023-05-10T14:27:53;16.70;99.90
47382;DHT22;33128;51.580;5.170;2023-05-10T14:30:20;17.20;99.90
47382;DHT22;33128;51.580;5.170;2023-05-10T14:32:45;17.60;99.90
47382;DHT22;33128;51.580;5.170;2023-05-10T14:35:11;17.90;99.90
47382;DHT22;33128;51.580;5.170;2023-05-10T14:37:38;18.10;99.90
47382;DHT22;33128;51.580;5.170;2023-05-10T14:40:03;18.50;99.90
47382;DHT22;33128;51.580;5.170;2023-05-10T14:42:29;19.20;99.90
47382;DHT22;33128;51.580;5.170;2023-05-10T14:44:57;20.90;99.90
47382;DHT22;33128;51.580;5.170;2023-05-10T14:47:23;22.80;99.90
47382;DHT22;33128;51.580;5.170;2023-05-10T14:49:49;23.70;99.90
47382;DHT22;33128;51.580;5.170;2023-05-10T14:52:14;23.40;99.90
47382;DHT22;33128;51.580;5.170;2023-05-10T14:54:40;22.90;99.90
47382;DHT22;33128;51.580;5.170;2023-05-10T14:57:06;23.20;99.90
47382;DHT22;33128;51.580;5.170;2023-05-10T14:59:32;23.40;99.90
47382;DHT22;33128;51.580;5.170;2023-05-10T15:01:57;23.80;99.90
47382;DHT22;33128;51.580;5.170;2023-05-10T15:04:23;24.00;99.90
47382;DHT22;33128;51.580;5.170;2023-05-10T15:06:48;23.50;99.90
47382;DHT22;33128;51.580;5.170;2023-05-10T15:09:14;22.60;99.90
47382;DHT22;33128;51.580;5.170;2023-05-10T15:11:40;21.90;99.90
47382;DHT22;33128;51.580;5.170;2023-05-10T15:14:06;21.40;99.90
47382;DHT22;33128;51.580;5.170;2023-05-10T15:16:31;21.10;99.90
47382;DHT22;33128;51.580;5.170;2023-05-10T15:18:57;20.80;99.90
47382;DHT22;33128;51.580;5.170;2023-05-10T15:21:22;20.70;99.90
47382;DHT22;33128;51.580;5.170;2023-05-10T15:23:48;20.60;99.90
47382;DHT22;33128;51.580;5.170;2023-05-10T15:26:14;20.50;99.90
47382;DHT22;33128;51.580;5.170;2023-05-10T15:28:39;20.40;99.90
47382;DHT22;33128;51.580;5.170;2023-05-10T15:31:05;20.30;99.90
47382;DHT22;33128;51.580;5.170;2023-05-10T15:33:30;20.30;99.90
47382;DHT22;33128;51.580;5.170;2023-05-10T15:35:55;20.30;99.90
47382;DHT22;33128;51.580;5.170;2023-05-10T15:38:21;20.20;99.90
47382;DHT22;33128;51.580;5.170;2023-05-10T15:40:47;20.10;99.90
47382;DHT22;33128;51.580;5.170;2023-05-10T15:43:13;20.00;99.90
47382;DHT22;33128;51.580;5.170;2023-05-10T15:45:39;19.90;99.90
47382;DHT22;33128;51.580;5.170;2023-05-10T15:48:04;19.80;99.90